Time;durP1;ratioP1;P1;durP2;ratioP2;P2;SDS_P1;SDS_P2;PMS_P1;PMS_P2;Temp;Humidity;BMP_temperature;BMP_pressure;BME280_temperature;BME280_humidity;BME280_pressure;Samples;Min_cycle;Max_cycle;Signal;HPM_P1;HPM_P2
2022/02/15 00:01:44;;;;;;;5.95;1.00;;;;;;;;;;5116771;28;20089;-70
2022/02/15 00:04:12;;;;;;;1.50;0.68;;;;;;;;;;5116859;28;20081;-68
2022/02/15 00:06:38;;;;;;;2.58;0.60;;;;;;;;;;5116269;28;20024;-66
2022/02/15 00:09:06;;;;;;;2.33;0.80;;;;;;;;;;5099226;28;20760;-66
2022/02/15 00:11:33;;;;;;;2.58;0.80;;;;;;;;;;5117354;28;20419;-66
2022/02/15 00:13:59;;;;;;;7.15;0.90;;;;;;;;;;5117449;28;20083;-67
2022/02/15 00:16:25;;;;;;;2.05;0.70;;;;;;;;;;5135176;27;20023;-67
2022/02/15 00:18:51;;;;;;;1.92;0.70;;;;;;;;;;5116395;27;20019;-71
2022/02/15 00:21:17;;;;;;;3.03;0.70;;;;;;;;;;5098012;28;20642;-68
2022/02/15 00:23:43;;;;;;;4.18;0.60;;;;;;;;;;5117444;27;20451;-66
2022/02/15 00:26:09;;;;;;;4.18;0.70;;;;;;;;;;5127866;27;20124;-65
2022/02/15 00:28:35;;;;;;;1.85;0.60;;;;;;;;;;5136489;27;20039;-66
2022/02/15 00:31:01;;;;;;;1.55;0.50;;;;;;;;;;5109268;27;20027;-66
2022/02/15 00:33:27;;;;;;;2.53;0.65;;;;;;;;;;5119609;27;20039;-69
2022/02/15 00:35:54;;;;;;;3.85;0.70;;;;;;;;;;5115964;28;20028;-69
2022/02/15 00:38:20;;;;;;;5.53;0.93;;;;;;;;;;5097743;28;20028;-67
2022/02/15 00:40:46;;;;;;;1.92;0.77;;;;;;;;;;5115426;28;20032;-70
2022/02/15 00:43:12;;;;;;;2.33;0.70;;;;;;;;;;5117457;28;20024;-67
2022/02/15 00:45:38;;;;;;;1.83;0.65;;;;;;;;;;5108512;27;20023;-67
2022/02/15 00:48:04;;;;;;;2.10;0.80;;;;;;;;;;5126502;27;20042;-68
2022/02/15 00:50:30;;;;;;;3.60;0.60;;;;;;;;;;5099549;28;20024;-69
2022/02/15 00:52:57;;;;;;;4.38;0.68;;;;;;;;;;5082048;28;20610;-71
2022/02/15 00:55:23;;;;;;;2.88;0.60;;;;;;;;;;5098697;28;20471;-72
2022/02/15 00:57:49;;;;;;;0.68;0.50;;;;;;;;;;5082250;28;20092;-67
2022/02/15 01:00:16;;;;;;;2.15;0.60;;;;;;;;;;5105370;27;20015;-70
2022/02/15 01:02:43;;;;;;;0.95;0.40;;;;;;;;;;5129143;27;20019;-68
2022/02/15 01:05:09;;;;;;;1.73;0.80;;;;;;;;;;5137085;27;20019;-67
2022/02/15 01:07:36;;;;;;;3.88;0.70;;;;;;;;;;5118577;27;20098;-67
2022/02/15 01:10:04;;;;;;;1.10;0.60;;;;;;;;;;5118010;27;20478;-66
2022/02/15 01:12:30;;;;;;;6.43;0.73;;;;;;;;;;5137008;27;20407;-70
2022/02/15 01:14:56;;;;;;;2.38;0.60;;;;;;;;;;5118712;27;20027;-66
2022/02/15 01:17:23;;;;;;;2.65;0.70;;;;;;;;;;5128153;27;20019;-67
2022/02/15 01:19:48;;;;;;;4.78;0.80;;;;;;;;;;5135442;27;20019;-70
2022/02/15 01:22:14;;;;;;;1.38;0.60;;;;;;;;;;5134995;27;20031;-66
2022/02/15 01:24:40;;;;;;;4.95;0.60;;;;;;;;;;5127141;27;20023;-67
2022/02/15 01:27:07;;;;;;;2.70;0.57;;;;;;;;;;5130001;27;20104;-67
2022/02/15 01:29:32;;;;;;;3.00;0.60;;;;;;;;;;5115000;28;20027;-70
2022/02/15 01:31:58;;;;;;;3.13;0.88;;;;;;;;;;5117359;27;20042;-66
2022/02/15 01:34:24;;;;;;;2.08;0.70;;;;;;;;;;5135401;27;20090;-66
2022/02/15 01:36:51;;;;;;;2.15;0.73;;;;;;;;;;5115520;27;20405;-66
2022/02/15 01:39:17;;;;;;;2.03;0.60;;;;;;;;;;5114807;28;20023;-69
2022/02/15 01:41:43;;;;;;;2.13;0.80;;;;;;;;;;5115433;28;20079;-65
2022/02/15 01:44:10;;;;;;;1.70;0.60;;;;;;;;;;5115471;28;20466;-66
2022/02/15 01:46:40;;;;;;;2.13;0.52;;;;;;;;;;5115718;28;20031;-65
2022/02/15 01:49:06;;;;;;;2.65;0.70;;;;;;;;;;5098922;27;20046;-67
2022/02/15 01:51:32;;;;;;;1.60;0.55;;;;;;;;;;5126070;27;20027;-66
2022/02/15 01:53:59;;;;;;;3.83;0.70;;;;;;;;;;5117518;27;20122;-65
2022/02/15 01:56:26;;;;;;;4.00;0.80;;;;;;;;;;5116963;27;20045;-65
2022/02/15 01:58:55;;;;;;;3.72;0.80;;;;;;;;;;5135058;27;20106;-68
2022/02/15 02:01:21;;;;;;;3.80;0.85;;;;;;;;;;5135013;27;20084;-68
2022/02/15 02:03:47;;;;;;;3.15;0.90;;;;;;;;;;5117423;27;20023;-66
2022/02/15 02:06:16;;;;;;;1.75;0.85;;;;;;;;;;5128980;27;20019;-67
2022/02/15 02:08:42;;;;;;;2.72;0.68;;;;;;;;;;5096921;28;20134;-69
2022/02/15 02:11:08;;;;;;;2.22;0.80;;;;;;;;;;5114867;28;20459;-69
2022/02/15 02:13:34;;;;;;;3.05;0.80;;;;;;;;;;5114069;28;20024;-67
2022/02/15 02:16:00;;;;;;;2.80;0.80;;;;;;;;;;5113749;28;20023;-66
2022/02/15 02:18:26;;;;;;;2.92;0.60;;;;;;;;;;5114427;28;20023;-68
2022/02/15 02:20:52;;;;;;;3.03;0.77;;;;;;;;;;5117696;27;20129;-72
2022/02/15 02:23:20;;;;;;;3.50;1.15;;;;;;;;;;5125700;27;20055;-67
2022/02/15 02:25:46;;;;;;;5.47;1.00;;;;;;;;;;5125780;27;20083;-71
2022/02/15 02:28:12;;;;;;;4.70;1.02;;;;;;;;;;5119368;27;20051;-66
2022/02/15 02:30:38;;;;;;;3.30;0.80;;;;;;;;;;5095024;28;20122;-66
2022/02/15 02:33:05;;;;;;;1.65;0.70;;;;;;;;;;5113511;28;20475;-66
2022/02/15 02:35:31;;;;;;;5.90;0.85;;;;;;;;;;5114010;28;20020;-66
2022/02/15 02:37:57;;;;;;;4.47;0.95;;;;;;;;;;5133403;27;20019;-68
2022/02/15 02:40:24;;;;;;;2.47;1.00;;;;;;;;;;5117931;27;20054;-68
2022/02/15 02:42:50;;;;;;;2.75;0.65;;;;;;;;;;5113809;28;20027;-68
2022/02/15 02:45:21;;;;;;;3.45;0.80;;;;;;;;;;5114711;28;20023;-68
2022/02/15 02:47:50;;;;;;;2.00;0.80;;;;;;;;;;5096812;28;20368;-69
2022/02/15 02:50:17;;;;;;;4.28;0.80;;;;;;;;;;5115073;28;20027;-69
2022/02/15 02:52:43;;;;;;;3.67;1.13;;;;;;;;;;5103564;28;20072;-66
2022/02/15 02:55:10;;;;;;;3.67;0.80;;;;;;;;;;5120626;28;20023;-70
2022/02/15 02:57:37;;;;;;;6.82;0.80;;;;;;;;;;5135766;28;20022;-69
2022/02/15 03:00:08;;;;;;;5.65;1.05;;;;;;;;;;5117361;28;20038;-66
2022/02/15 03:02:34;;;;;;;1.75;0.80;;;;;;;;;;5116779;28;20019;-70
2022/02/15 03:05:00;;;;;;;2.80;0.90;;;;;;;;;;5116967;28;20427;-72
2022/02/15 03:07:26;;;;;;;2.17;0.77;;;;;;;;;;5135122;28;20068;-67
2022/02/15 03:09:52;;;;;;;1.67;0.70;;;;;;;;;;5123114;28;20476;-66
2022/02/15 03:12:18;;;;;;;3.72;0.85;;;;;;;;;;5113594;28;20027;-66
2022/02/15 03:14:47;;;;;;;4.80;0.80;;;;;;;;;;5113599;28;20027;-66
2022/02/15 03:17:13;;;;;;;3.85;0.98;;;;;;;;;;5112945;28;20020;-66
2022/02/15 03:19:39;;;;;;;6.65;1.10;;;;;;;;;;5114085;28;20055;-69
2022/02/15 03:22:05;;;;;;;2.97;1.00;;;;;;;;;;5095026;28;20060;-70
2022/02/15 03:24:33;;;;;;;7.85;1.10;;;;;;;;;;5121291;28;20098;-66
2022/02/15 03:27:03;;;;;;;4.07;1.10;;;;;;;;;;5122487;27;20054;-65
2022/02/15 03:29:29;;;;;;;3.08;0.85;;;;;;;;;;5116599;28;20036;-66
2022/02/15 03:31:55;;;;;;;3.90;1.10;;;;;;;;;;5095200;28;20023;-66
2022/02/15 03:34:21;;;;;;;10.55;1.00;;;;;;;;;;5113575;28;20113;-65
2022/02/15 03:36:47;;;;;;;4.93;0.93;;;;;;;;;;5095293;28;20024;-68
2022/02/15 03:39:13;;;;;;;7.78;1.17;;;;;;;;;;5113805;28;20028;-74
2022/02/15 03:44:24;;;;;;;11.10;1.60;;;;;;;;;;5120114;27;20323;-70
2022/02/15 03:46:50;;;;;;;5.93;1.20;;;;;;;;;;5126318;27;20031;-66
2022/02/15 03:49:17;;;;;;;5.40;1.13;;;;;;;;;;5123166;27;20555;-66
2022/02/15 03:51:43;;;;;;;5.53;1.20;;;;;;;;;;5130601;27;20452;-65
2022/02/15 03:54:10;;;;;;;8.48;1.38;;;;;;;;;;5123326;27;20031;-66
2022/02/15 03:56:36;;;;;;;5.32;1.30;;;;;;;;;;5125212;27;20019;-66
2022/02/15 03:59:04;;;;;;;11.15;1.20;;;;;;;;;;5108352;27;20050;-67
2022/02/15 04:01:30;;;;;;;4.60;1.17;;;;;;;;;;5128056;27;20028;-71
2022/02/15 04:03:56;;;;;;;6.90;1.05;;;;;;;;;;5115723;28;20528;-68
2022/02/15 04:06:22;;;;;;;11.77;1.20;;;;;;;;;;5116348;28;20047;-66
2022/02/15 04:08:48;;;;;;;7.40;1.10;;;;;;;;;;5116218;28;20078;-67
2022/02/15 04:11:14;;;;;;;5.10;0.93;;;;;;;;;;5097877;28;20080;-66
2022/02/15 04:13:40;;;;;;;6.80;1.27;;;;;;;;;;5116712;28;20027;-66
2022/02/15 04:16:08;;;;;;;2.85;0.88;;;;;;;;;;5114145;27;20030;-67
2022/02/15 04:18:35;;;;;;;2.65;1.00;;;;;;;;;;5119266;27;20047;-70
2022/02/15 04:21:01;;;;;;;3.30;1.10;;;;;;;;;;5125577;27;20034;-70
2022/02/15 04:23:27;;;;;;;8.27;1.08;;;;;;;;;;5124915;27;20023;-69
2022/02/15 04:25:53;;;;;;;4.18;1.10;;;;;;;;;;5129837;27;20485;-67
2022/02/15 04:28:19;;;;;;;2.45;1.05;;;;;;;;;;5126282;27;20039;-66
2022/02/15 04:30:45;;;;;;;4.35;1.00;;;;;;;;;;5120622;27;20046;-67
2022/02/15 04:33:13;;;;;;;5.22;1.00;;;;;;;;;;5109134;28;20474;-66
2022/02/15 04:35:39;;;;;;;3.45;1.00;;;;;;;;;;5109223;27;20092;-67
2022/02/15 04:38:05;;;;;;;4.57;1.08;;;;;;;;;;5136346;27;20453;-72
2022/02/15 04:40:31;;;;;;;4.55;1.00;;;;;;;;;;5117637;27;20024;-71
2022/02/15 04:42:57;;;;;;;4.05;0.98;;;;;;;;;;5117621;27;20058;-67
2022/02/15 04:45:23;;;;;;;4.70;0.80;;;;;;;;;;5136794;27;20047;-66
2022/02/15 04:47:49;;;;;;;3.05;1.15;;;;;;;;;;5135856;27;20027;-67
2022/02/15 04:50:15;;;;;;;3.92;1.05;;;;;;;;;;5116942;27;20042;-67
2022/02/15 04:52:41;;;;;;;5.53;1.30;;;;;;;;;;5133450;27;20019;-67
2022/02/15 04:55:07;;;;;;;3.35;1.25;;;;;;;;;;5136387;27;20493;-70
2022/02/15 04:57:34;;;;;;;3.17;1.17;;;;;;;;;;5135769;27;20378;-70
2022/02/15 05:00:00;;;;;;;2.78;0.95;;;;;;;;;;5135750;27;20470;-66
2022/02/15 05:02:26;;;;;;;8.10;1.00;;;;;;;;;;5117135;27;20034;-67
2022/02/15 05:04:53;;;;;;;1.77;0.98;;;;;;;;;;5135835;27;20410;-66
2022/02/15 05:07:23;;;;;;;5.68;1.30;;;;;;;;;;5109668;28;20050;-66
2022/02/15 05:09:49;;;;;;;3.25;1.00;;;;;;;;;;5127003;27;20039;-66
2022/02/15 05:12:16;;;;;;;3.33;1.40;;;;;;;;;;5116894;27;20110;-71
2022/02/15 05:14:43;;;;;;;3.55;1.10;;;;;;;;;;5116726;27;20755;-69
2022/02/15 05:17:09;;;;;;;4.75;1.02;;;;;;;;;;5116991;27;20031;-70
2022/02/15 05:19:35;;;;;;;4.10;1.08;;;;;;;;;;5135110;27;20373;-67
2022/02/15 05:22:01;;;;;;;3.67;1.00;;;;;;;;;;5120412;27;20030;-66
2022/02/15 05:24:27;;;;;;;3.90;1.27;;;;;;;;;;5137872;27;20048;-66
2022/02/15 05:26:54;;;;;;;5.22;1.20;;;;;;;;;;5122678;27;20040;-68
2022/02/15 05:29:20;;;;;;;4.18;0.93;;;;;;;;;;5114544;28;20073;-68
2022/02/15 05:31:49;;;;;;;4.15;1.30;;;;;;;;;;5114758;28;20084;-70
2022/02/15 05:34:15;;;;;;;2.97;1.10;;;;;;;;;;5096409;28;20028;-66
2022/02/15 05:36:41;;;;;;;2.90;0.80;;;;;;;;;;5114478;28;20026;-70
2022/02/15 05:39:07;;;;;;;3.97;1.25;;;;;;;;;;5097729;27;20022;-67
2022/02/15 05:41:33;;;;;;;3.58;1.30;;;;;;;;;;5134253;27;20030;-66
2022/02/15 05:44:00;;;;;;;4.15;1.77;;;;;;;;;;5133844;27;20023;-67
2022/02/15 05:46:26;;;;;;;3.17;1.10;;;;;;;;;;5135208;27;20067;-66
2022/02/15 05:48:51;;;;;;;4.85;1.38;;;;;;;;;;5125039;27;20097;-71
2022/02/15 05:51:17;;;;;;;2.28;0.90;;;;;;;;;;5114060;28;20027;-70
2022/02/15 05:53:43;;;;;;;3.95;1.00;;;;;;;;;;5114122;28;20382;-69
2022/02/15 05:56:09;;;;;;;6.32;1.10;;;;;;;;;;5123742;27;20019;-71
2022/02/15 05:58:37;;;;;;;3.38;1.00;;;;;;;;;;5128345;27;20094;-67
2022/02/15 06:01:03;;;;;;;4.18;1.15;;;;;;;;;;5116502;27;20015;-66
2022/02/15 06:06:14;;;;;;;4.10;1.17;;;;;;;;;;5134902;27;20409;-68
2022/02/15 06:08:40;;;;;;;2.97;1.08;;;;;;;;;;5134405;27;20483;-67
2022/02/15 06:11:06;;;;;;;4.07;1.25;;;;;;;;;;5134287;27;20034;-68
2022/02/15 06:13:32;;;;;;;3.45;1.15;;;;;;;;;;5134705;27;20034;-67
2022/02/15 06:15:59;;;;;;;3.50;1.05;;;;;;;;;;5129960;27;20039;-67
2022/02/15 06:18:25;;;;;;;3.42;1.10;;;;;;;;;;5114250;28;20058;-68
2022/02/15 06:20:51;;;;;;;3.60;1.23;;;;;;;;;;5095547;28;20020;-71
2022/02/15 06:23:17;;;;;;;3.03;1.05;;;;;;;;;;5113973;28;20108;-66
2022/02/15 06:25:43;;;;;;;5.28;1.48;;;;;;;;;;5129608;27;20097;-67
2022/02/15 06:28:09;;;;;;;5.65;1.50;;;;;;;;;;5125228;27;20062;-70
2022/02/15 06:30:35;;;;;;;3.83;1.20;;;;;;;;;;5128442;27;20111;-65
2022/02/15 06:33:01;;;;;;;2.70;1.00;;;;;;;;;;5115698;27;20054;-68
2022/02/15 06:35:27;;;;;;;5.18;1.30;;;;;;;;;;5134581;27;20046;-69
2022/02/15 06:37:53;;;;;;;2.38;1.00;;;;;;;;;;5116048;28;20075;-72
2022/02/15 06:40:20;;;;;;;4.18;1.33;;;;;;;;;;5134188;27;20461;-68
2022/02/15 06:42:46;;;;;;;5.38;1.48;;;;;;;;;;5115501;27;20534;-67
2022/02/15 06:45:13;;;;;;;3.78;1.35;;;;;;;;;;5133792;27;20023;-66
2022/02/15 06:47:39;;;;;;;3.30;1.27;;;;;;;;;;5132222;27;20031;-66
2022/02/15 06:50:06;;;;;;;5.10;1.20;;;;;;;;;;5113575;28;20038;-67
2022/02/15 06:52:32;;;;;;;3.22;1.23;;;;;;;;;;5113427;28;20513;-70
2022/02/15 06:54:58;;;;;;;9.35;1.50;;;;;;;;;;5114452;28;20072;-70
2022/02/15 06:57:24;;;;;;;8.50;1.65;;;;;;;;;;5114809;28;20019;-70
2022/02/15 06:59:50;;;;;;;6.35;1.48;;;;;;;;;;5113846;28;20418;-70
2022/02/15 07:02:20;;;;;;;5.57;1.30;;;;;;;;;;5117209;27;20088;-73
2022/02/15 07:04:49;;;;;;;4.72;1.30;;;;;;;;;;5116330;28;20020;-74
2022/02/15 07:07:15;;;;;;;66.20;1.98;;;;;;;;;;5115778;28;20024;-67
2022/02/15 07:09:42;;;;;;;14.63;2.03;;;;;;;;;;5118173;28;20028;-62
2022/02/15 07:12:09;;;;;;;35.40;1.52;;;;;;;;;;5113515;28;20024;-66
2022/02/15 07:14:35;;;;;;;31.58;1.95;;;;;;;;;;5124270;28;20716;-66
2022/02/15 07:17:01;;;;;;;15.20;1.83;;;;;;;;;;5123288;27;20091;-67
2022/02/15 07:19:29;;;;;;;21.27;1.83;;;;;;;;;;5126989;27;20099;-65
2022/02/15 07:21:59;;;;;;;25.98;1.70;;;;;;;;;;5104606;28;20407;-63
2022/02/15 07:24:25;;;;;;;16.75;1.70;;;;;;;;;;5126461;27;20023;-64
2022/02/15 07:26:51;;;;;;;15.98;1.52;;;;;;;;;;5125878;27;20050;-66
2022/02/15 07:29:17;;;;;;;15.63;1.85;;;;;;;;;;5131074;27;20031;-63
2022/02/15 07:31:44;;;;;;;22.02;1.73;;;;;;;;;;5130625;27;20059;-67
2022/02/15 07:34:10;;;;;;;20.17;1.83;;;;;;;;;;5125189;27;20024;-63
2022/02/15 07:36:36;;;;;;;16.80;1.60;;;;;;;;;;5137351;27;20026;-63
2022/02/15 07:39:02;;;;;;;10.32;1.77;;;;;;;;;;5123886;27;20122;-64
2022/02/15 07:41:29;;;;;;;14.88;2.30;;;;;;;;;;5127815;27;20023;-64
2022/02/15 07:43:56;;;;;;;6.53;1.27;;;;;;;;;;5109289;27;20023;-65
2022/02/15 07:46:22;;;;;;;16.63;1.88;;;;;;;;;;5124753;27;20023;-64
2022/02/15 07:48:49;;;;;;;6.63;1.60;;;;;;;;;;5126924;27;20058;-65
2022/02/15 07:51:15;;;;;;;10.55;1.20;;;;;;;;;;5108283;27;20026;-64
2022/02/15 07:53:41;;;;;;;7.55;1.35;;;;;;;;;;5124544;27;20034;-64
2022/02/15 07:56:07;;;;;;;7.10;1.50;;;;;;;;;;5127681;27;20015;-64
2022/02/15 07:58:34;;;;;;;7.93;1.60;;;;;;;;;;5126441;27;20030;-66
2022/02/15 08:01:00;;;;;;;9.73;1.75;;;;;;;;;;5123495;27;20019;-64
2022/02/15 08:03:28;;;;;;;7.70;1.75;;;;;;;;;;5126633;27;20034;-67
2022/02/15 08:05:55;;;;;;;6.07;1.95;;;;;;;;;;5127043;27;20362;-63
2022/02/15 08:08:21;;;;;;;5.97;1.80;;;;;;;;;;5125833;27;20028;-65
2022/02/15 08:10:47;;;;;;;8.30;1.85;;;;;;;;;;5105886;27;20055;-66
2022/02/15 08:13:21;;;;;;;7.75;1.52;;;;;;;;;;5130131;27;20019;-63
2022/02/15 08:15:49;;;;;;;5.55;1.52;;;;;;;;;;5126986;27;20024;-65
2022/02/15 08:18:15;;;;;;;7.63;1.63;;;;;;;;;;5128388;27;20111;-65
2022/02/15 08:20:41;;;;;;;5.53;1.30;;;;;;;;;;5125129;27;20051;-66
2022/02/15 08:23:07;;;;;;;6.18;1.30;;;;;;;;;;5125745;27;20705;-66
2022/02/15 08:25:34;;;;;;;5.38;1.40;;;;;;;;;;5122134;27;20024;-66
2022/02/15 08:28:01;;;;;;;6.82;1.63;;;;;;;;;;5127335;27;20478;-63
2022/02/15 08:30:27;;;;;;;8.38;1.60;;;;;;;;;;5127329;27;20027;-66
2022/02/15 08:32:53;;;;;;;11.60;1.70;;;;;;;;;;5123178;27;20122;-64
2022/02/15 08:35:20;;;;;;;5.55;1.55;;;;;;;;;;5125587;27;20047;-64
2022/02/15 08:37:46;;;;;;;6.70;1.63;;;;;;;;;;5106151;27;20039;-67
2022/02/15 08:40:14;;;;;;;4.20;1.30;;;;;;;;;;5120721;27;20015;-67
2022/02/15 08:42:40;;;;;;;8.32;1.70;;;;;;;;;;5125603;27;20028;-68
2022/02/15 08:45:10;;;;;;;5.10;1.40;;;;;;;;;;5126886;27;20019;-68
2022/02/15 08:47:36;;;;;;;4.78;1.30;;;;;;;;;;5124523;27;20482;-69
2022/02/15 08:50:02;;;;;;;5.47;1.30;;;;;;;;;;5109043;27;20030;-67
2022/02/15 08:52:28;;;;;;;11.38;1.60;;;;;;;;;;5128792;27;20023;-65
2022/02/15 08:54:55;;;;;;;9.55;2.15;;;;;;;;;;5126245;27;20031;-66
2022/02/15 08:57:22;;;;;;;6.20;1.35;;;;;;;;;;5106375;27;20035;-65
2022/02/15 08:59:53;;;;;;;7.40;1.60;;;;;;;;;;5126373;27;20024;-62
2022/02/15 09:02:19;;;;;;;7.05;1.15;;;;;;;;;;5126379;27;20016;-64
2022/02/15 09:04:45;;;;;;;9.48;1.58;;;;;;;;;;5126665;27;20114;-62
2022/02/15 09:07:11;;;;;;;7.05;1.50;;;;;;;;;;5120851;27;20518;-62
2022/02/15 09:09:37;;;;;;;7.38;1.52;;;;;;;;;;5125131;27;20058;-65
2022/02/15 09:12:03;;;;;;;9.38;1.52;;;;;;;;;;5123365;27;20386;-65
2022/02/15 09:14:30;;;;;;;7.47;1.48;;;;;;;;;;5125232;27;20028;-65
2022/02/15 09:16:59;;;;;;;4.13;1.40;;;;;;;;;;5129745;27;20024;-67
2022/02/15 09:19:25;;;;;;;6.72;1.50;;;;;;;;;;5125187;27;20016;-65
2022/02/15 09:21:51;;;;;;;6.97;1.50;;;;;;;;;;5107560;27;20015;-65
2022/02/15 09:24:17;;;;;;;10.63;1.67;;;;;;;;;;5125964;27;20051;-63
2022/02/15 09:26:43;;;;;;;8.82;2.03;;;;;;;;;;5122400;27;20470;-66
2022/02/15 09:29:10;;;;;;;5.28;1.40;;;;;;;;;;5119805;27;20046;-63
2022/02/15 09:31:39;;;;;;;12.52;1.52;;;;;;;;;;5123228;27;20073;-66
2022/02/15 09:34:06;;;;;;;8.90;1.50;;;;;;;;;;5119902;27;20083;-67
2022/02/15 09:36:32;;;;;;;7.45;1.52;;;;;;;;;;5123999;27;20020;-63
2022/02/15 09:38:58;;;;;;;9.32;1.88;;;;;;;;;;5124066;27;20049;-63
2022/02/15 09:41:24;;;;;;;10.73;1.50;;;;;;;;;;5124790;27;20023;-66
2022/02/15 09:43:51;;;;;;;5.05;1.23;;;;;;;;;;5123024;27;20031;-68
2022/02/15 09:46:17;;;;;;;7.95;1.50;;;;;;;;;;5123614;27;20026;-69
2022/02/15 09:48:44;;;;;;;7.70;1.63;;;;;;;;;;5128608;27;20031;-67
2022/02/15 09:51:11;;;;;;;5.63;1.15;;;;;;;;;;5124509;27;20444;-69
2022/02/15 09:53:37;;;;;;;6.10;1.65;;;;;;;;;;5122790;27;20024;-65
2022/02/15 09:56:04;;;;;;;10.80;1.83;;;;;;;;;;5122911;27;20030;-63
2022/02/15 09:58:30;;;;;;;8.18;1.45;;;;;;;;;;5121992;27;20034;-69
2022/02/15 10:00:56;;;;;;;6.30;1.67;;;;;;;;;;5121816;27;20016;-68
2022/02/15 10:03:23;;;;;;;6.68;1.23;;;;;;;;;;5121866;27;20105;-68
2022/02/15 10:05:49;;;;;;;4.90;1.70;;;;;;;;;;5127732;27;20099;-68
2022/02/15 10:08:24;;;;;;;7.95;1.33;;;;;;;;;;5119711;27;20454;-68
2022/02/15 10:10:50;;;;;;;11.23;1.95;;;;;;;;;;5105873;27;20457;-68
2022/02/15 10:13:16;;;;;;;6.40;1.63;;;;;;;;;;5124705;27;20450;-67
2022/02/15 10:15:44;;;;;;;3.90;1.25;;;;;;;;;;5123099;27;20429;-69
2022/02/15 10:18:15;;;;;;;5.05;1.17;;;;;;;;;;5122054;27;20110;-69
2022/02/15 10:20:42;;;;;;;11.07;1.33;;;;;;;;;;5105835;27;20023;-68
2022/02/15 10:23:17;;;;;;;5.28;1.50;;;;;;;;;;5112832;28;20043;-68
2022/02/15 10:25:43;;;;;;;5.57;1.55;;;;;;;;;;5120352;27;20482;-69
2022/02/15 10:28:16;;;;;;;7.53;1.20;;;;;;;;;;5124552;27;20100;-68
2022/02/15 10:30:49;;;;;;;7.13;1.25;;;;;;;;;;5121855;27;20081;-69
2022/02/15 10:33:16;;;;;;;6.15;1.52;;;;;;;;;;5123941;27;20106;-69
2022/02/15 10:35:51;;;;;;;7.28;1.30;;;;;;;;;;5124816;27;20061;-68
2022/02/15 10:38:38;;;;;;;5.97;1.17;;;;;;;;;;5123690;27;20030;-68
2022/02/15 10:41:05;;;;;;;3.92;1.20;;;;;;;;;;5106922;27;20118;-66
2022/02/15 10:43:50;;;;;;;6.70;1.40;;;;;;;;;;5121681;27;20043;-67
2022/02/15 10:46:20;;;;;;;12.32;1.65;;;;;;;;;;5121297;27;20027;-67
2022/02/15 10:48:47;;;;;;;4.25;1.27;;;;;;;;;;5124129;28;20032;-67
2022/02/15 10:51:13;;;;;;;6.22;1.38;;;;;;;;;;5122239;28;20023;-66
2022/02/15 10:53:39;;;;;;;5.75;1.38;;;;;;;;;;5108575;28;20016;-68
2022/02/15 10:56:06;;;;;;;8.45;1.58;;;;;;;;;;5121397;28;20060;-68
2022/02/15 10:58:33;;;;;;;4.18;1.02;;;;;;;;;;5124857;27;20033;-68
2022/02/15 11:01:00;;;;;;;3.80;1.13;;;;;;;;;;5117873;28;20069;-69
2022/02/15 11:03:30;;;;;;;4.47;1.38;;;;;;;;;;5122610;28;20031;-68
2022/02/15 11:05:56;;;;;;;5.07;1.30;;;;;;;;;;5124511;28;20015;-68
2022/02/15 11:08:22;;;;;;;5.00;1.20;;;;;;;;;;5124155;28;20054;-67
2022/02/15 11:10:51;;;;;;;9.43;1.58;;;;;;;;;;5124166;28;20016;-64
2022/02/15 11:13:17;;;;;;;2.80;1.00;;;;;;;;;;5125196;28;20020;-67
2022/02/15 11:15:50;;;;;;;7.45;1.30;;;;;;;;;;5106776;28;20106;-68
2022/02/15 11:18:27;;;;;;;8.20;1.30;;;;;;;;;;5124479;28;20378;-68
2022/02/15 11:20:59;;;;;;;7.30;1.38;;;;;;;;;;5121737;28;20033;-70
2022/02/15 11:23:36;;;;;;;8.40;1.60;;;;;;;;;;5116089;28;20015;-69
2022/02/15 11:26:02;;;;;;;14.50;1.48;;;;;;;;;;5117931;28;20482;-69
2022/02/15 11:28:28;;;;;;;18.83;1.20;;;;;;;;;;5117152;28;20039;-69
2022/02/15 11:30:59;;;;;;;16.08;1.60;;;;;;;;;;5131052;27;20068;-68
2022/02/15 11:33:29;;;;;;;5.22;1.30;;;;;;;;;;5133265;28;20353;-68
2022/02/15 11:35:57;;;;;;;5.60;1.38;;;;;;;;;;5133379;28;20030;-68
2022/02/15 11:38:26;;;;;;;6.30;1.30;;;;;;;;;;5133368;28;20027;-65
2022/02/15 11:40:56;;;;;;;10.45;1.13;;;;;;;;;;5115176;28;20023;-67
2022/02/15 11:43:22;;;;;;;3.75;0.90;;;;;;;;;;5119538;28;20352;-66
2022/02/15 11:45:48;;;;;;;14.30;2.08;;;;;;;;;;5113327;28;20509;-67
2022/02/15 11:48:14;;;;;;;5.72;1.60;;;;;;;;;;5112638;28;20118;-66
2022/02/15 11:50:42;;;;;;;6.95;1.42;;;;;;;;;;5114639;28;20027;-68
2022/02/15 11:53:08;;;;;;;5.18;1.38;;;;;;;;;;5123877;28;20024;-69
2022/02/15 11:55:35;;;;;;;8.70;1.50;;;;;;;;;;5123697;28;20031;-67
2022/02/15 11:58:01;;;;;;;6.68;1.00;;;;;;;;;;5103759;28;20026;-66
2022/02/15 12:00:34;;;;;;;11.18;1.75;;;;;;;;;;5122708;28;20020;-65
2022/02/15 12:03:00;;;;;;;3.83;1.25;;;;;;;;;;5104231;27;20023;-66
2022/02/15 12:05:30;;;;;;;4.60;1.30;;;;;;;;;;5125118;27;20076;-65
2022/02/15 12:07:57;;;;;;;3.95;1.20;;;;;;;;;;5122514;27;20053;-69
2022/02/15 12:10:24;;;;;;;4.63;1.67;;;;;;;;;;5131250;27;20024;-69
2022/02/15 12:12:52;;;;;;;8.85;1.52;;;;;;;;;;5128898;27;20028;-68
2022/02/15 12:15:18;;;;;;;3.97;1.40;;;;;;;;;;5112004;27;20019;-69
2022/02/15 12:17:46;;;;;;;4.78;1.05;;;;;;;;;;5125257;27;20088;-68
2022/02/15 12:20:20;;;;;;;8.40;1.58;;;;;;;;;;5129190;27;20026;-69
2022/02/15 12:22:53;;;;;;;4.78;1.45;;;;;;;;;;5126203;27;20081;-67
2022/02/15 12:25:19;;;;;;;4.78;1.27;;;;;;;;;;5126824;27;20024;-66
2022/02/15 12:27:46;;;;;;;9.43;1.40;;;;;;;;;;5121425;27;20474;-66
2022/02/15 12:30:14;;;;;;;9.82;1.60;;;;;;;;;;5124306;27;20478;-67
2022/02/15 12:32:41;;;;;;;8.75;1.70;;;;;;;;;;5125921;27;20035;-66
2022/02/15 12:35:08;;;;;;;14.43;1.90;;;;;;;;;;5124869;27;20390;-66
2022/02/15 12:37:35;;;;;;;10.50;1.52;;;;;;;;;;5126962;27;20012;-67
2022/02/15 12:40:02;;;;;;;11.75;1.80;;;;;;;;;;5126683;27;20038;-66
2022/02/15 12:42:29;;;;;;;11.38;1.40;;;;;;;;;;5126121;27;20030;-65
2022/02/15 12:44:59;;;;;;;10.82;1.77;;;;;;;;;;5123634;27;20154;-64
2022/02/15 12:47:32;;;;;;;15.15;1.95;;;;;;;;;;5128831;27;20027;-65
2022/02/15 12:49:59;;;;;;;14.70;1.50;;;;;;;;;;5131071;27;20031;-65
2022/02/15 12:52:26;;;;;;;7.72;1.50;;;;;;;;;;5129767;27;20028;-68
2022/02/15 12:54:53;;;;;;;21.48;2.22;;;;;;;;;;5122216;27;20023;-68
2022/02/15 12:57:21;;;;;;;22.50;1.70;;;;;;;;;;5126270;27;20023;-63
2022/02/15 12:59:47;;;;;;;15.45;1.70;;;;;;;;;;5123005;27;20031;-76
2022/02/15 13:02:16;;;;;;;12.98;2.05;;;;;;;;;;5118391;27;20020;-63
2022/02/15 13:04:49;;;;;;;17.08;2.10;;;;;;;;;;5125744;27;20462;-65
2022/02/15 13:07:16;;;;;;;12.73;1.90;;;;;;;;;;5126048;27;20036;-67
2022/02/15 13:09:47;;;;;;;9.63;1.30;;;;;;;;;;5125582;27;20094;-68
2022/02/15 13:12:16;;;;;;;10.57;1.85;;;;;;;;;;5128789;27;20023;-69
2022/02/15 13:14:48;;;;;;;8.43;1.70;;;;;;;;;;5113321;28;20545;-72
2022/02/15 13:17:14;;;;;;;10.50;1.63;;;;;;;;;;5096908;28;20046;-72
2022/02/15 13:19:40;;;;;;;15.30;1.63;;;;;;;;;;5115369;28;20577;-71
2022/02/15 13:22:11;;;;;;;16.77;1.58;;;;;;;;;;5115172;28;20047;-72
2022/02/15 13:24:37;;;;;;;11.45;1.45;;;;;;;;;;5114844;28;20039;-70
2022/02/15 13:27:03;;;;;;;11.10;1.45;;;;;;;;;;5115017;28;20104;-69
2022/02/15 13:29:31;;;;;;;8.48;1.83;;;;;;;;;;5127022;27;20391;-66
2022/02/15 13:31:58;;;;;;;7.82;1.48;;;;;;;;;;5132887;27;20023;-68
2022/02/15 13:34:28;;;;;;;7.50;1.40;;;;;;;;;;5135319;27;20023;-68
2022/02/15 13:36:58;;;;;;;8.90;2.10;;;;;;;;;;5116160;27;20029;-70
2022/02/15 13:39:24;;;;;;;8.60;1.20;;;;;;;;;;5116858;27;20093;-70
2022/02/15 13:41:51;;;;;;;7.97;1.15;;;;;;;;;;5131068;27;20016;-71
2022/02/15 13:44:18;;;;;;;4.70;1.35;;;;;;;;;;5130195;27;20049;-76
2022/02/15 13:46:44;;;;;;;3.67;1.05;;;;;;;;;;5128165;27;20478;-72
2022/02/15 13:49:10;;;;;;;6.18;1.40;;;;;;;;;;5128421;27;20046;-71
2022/02/15 13:51:36;;;;;;;9.23;1.42;;;;;;;;;;5120980;27;20059;-64
2022/02/15 13:54:03;;;;;;;6.78;1.45;;;;;;;;;;5125123;27;20034;-73
2022/02/15 13:56:30;;;;;;;4.85;1.48;;;;;;;;;;5127455;27;20026;-72
2022/02/15 13:58:56;;;;;;;10.13;1.60;;;;;;;;;;5120449;27;20027;-72
2022/02/15 14:01:22;;;;;;;5.57;1.30;;;;;;;;;;5104431;27;20028;-74
2022/02/15 14:03:52;;;;;;;9.05;1.73;;;;;;;;;;5131124;27;20027;-69
2022/02/15 14:06:19;;;;;;;5.65;1.30;;;;;;;;;;5123759;27;20383;-72
2022/02/15 14:08:45;;;;;;;4.60;1.10;;;;;;;;;;5135333;27;20035;-72
2022/02/15 14:11:11;;;;;;;12.70;1.60;;;;;;;;;;5119101;27;20026;-65
2022/02/15 14:13:37;;;;;;;4.45;1.38;;;;;;;;;;5129207;27;20023;-64
2022/02/15 14:16:03;;;;;;;7.82;1.55;;;;;;;;;;5126010;27;20676;-68
2022/02/15 14:18:29;;;;;;;3.85;1.23;;;;;;;;;;5125759;27;20080;-67
2022/02/15 14:20:55;;;;;;;5.07;1.00;;;;;;;;;;5124349;27;20030;-67
2022/02/15 14:23:21;;;;;;;7.50;1.80;;;;;;;;;;5134210;27;20023;-68
2022/02/15 14:25:47;;;;;;;6.97;1.90;;;;;;;;;;5106927;27;20065;-67
2022/02/15 14:28:13;;;;;;;4.85;1.33;;;;;;;;;;5124253;27;20111;-65
2022/02/15 14:30:39;;;;;;;4.10;1.30;;;;;;;;;;5098043;28;20015;-72
2022/02/15 14:33:06;;;;;;;7.88;1.60;;;;;;;;;;5115704;27;20046;-70
2022/02/15 14:35:32;;;;;;;4.68;1.20;;;;;;;;;;5129298;27;20432;-68
2022/02/15 14:38:01;;;;;;;8.20;1.40;;;;;;;;;;5121765;27;20070;-69
2022/02/15 14:40:28;;;;;;;9.35;1.42;;;;;;;;;;5108368;27;20027;-73
2022/02/15 14:42:54;;;;;;;5.53;1.40;;;;;;;;;;5122897;27;20028;-70
2022/02/15 14:45:21;;;;;;;5.25;1.45;;;;;;;;;;5122575;27;20027;-69